createdAt,value
2023-10-09T00:02:13.500Z,31.58
2023-10-09T00:04:43.614Z,35.60
2023-10-09T00:07:11.623Z,30.08
2023-10-09T00:09:48.046Z,32.95
2023-10-09T00:12:23.516Z,35.20
2023-10-09T00:14:51.965Z,30.67
2023-10-09T00:17:22.598Z,29.90
2023-10-09T00:19:52.610Z,32.90
2023-10-09T00:22:22.259Z,30.02
2023-10-09T00:24:51.719Z,26.92
2023-10-09T00:27:22.594Z,32.55
2023-10-09T00:29:50.000Z,35.88
2023-10-09T00:32:28.385Z,32.05
2023-10-09T00:34:59.481Z,29.98
2023-10-09T00:37:27.574Z,33.93
2023-10-09T00:39:58.117Z,33.45
2023-10-09T00:42:30.924Z,35.20
2023-10-09T00:44:57.563Z,30.58
2023-10-09T00:47:28.014Z,30.02
2023-10-09T00:50:19.046Z,36.10
2023-10-09T00:52:52.379Z,34.78
2023-10-09T00:55:39.643Z,32.08
2023-10-09T00:58:16.301Z,30.15
2023-10-09T01:00:46.705Z,31.65
2023-10-09T01:03:18.214Z,35.87
2023-10-09T01:05:59.476Z,32.65
2023-10-09T01:08:31.983Z,32.22
2023-10-09T01:11:09.984Z,32.55
2023-10-09T01:13:53.519Z,33.70
2023-10-09T01:16:24.092Z,28.85
2023-10-09T01:18:53.258Z,32.83
2023-10-09T01:21:27.875Z,32.55
2023-10-09T01:24:03.995Z,30.80
2023-10-09T01:26:40.726Z,25.65
2023-10-09T01:29:15.421Z,32.67
2023-10-09T01:31:53.352Z,34.65
2023-10-09T01:34:25.113Z,30.35
2023-10-09T01:36:56.786Z,31.33
2023-10-09T01:39:25.075Z,30.45
2023-10-09T01:41:59.208Z,29.80
2023-10-09T01:44:27.948Z,32.10
2023-10-09T01:46:57.833Z,34.10
2023-10-09T01:49:30.833Z,26.80
2023-10-09T01:52:10.053Z,32.72
2023-10-09T01:54:38.015Z,30.37
2023-10-09T01:57:13.490Z,31.90
2023-10-09T01:59:50.777Z,24.70
2023-10-09T02:02:27.618Z,25.17
2023-10-09T02:05:10.753Z,25.95
2023-10-09T02:07:53.204Z,25.63
2023-10-09T02:10:27.577Z,27.95
2023-10-09T02:12:58.630Z,30.75
2023-10-09T02:15:45.562Z,26.70
2023-10-09T02:18:23.463Z,29.65
2023-10-09T02:21:05.405Z,28.58
2023-10-09T02:23:42.256Z,26.73
2023-10-09T02:26:12.036Z,28.75
2023-10-09T02:28:38.474Z,25.55
2023-10-09T02:31:12.952Z,26.38
2023-10-09T02:33:42.963Z,25.60
2023-10-09T02:36:10.948Z,25.17
2023-10-09T02:38:38.973Z,22.55
2023-10-09T02:41:05.445Z,23.85
2023-10-09T02:43:47.799Z,25.77
2023-10-09T02:46:19.060Z,22.87
2023-10-09T02:48:49.254Z,22.27
2023-10-09T02:51:33.199Z,24.40
2023-10-09T02:54:19.967Z,23.05
2023-10-09T02:56:57.223Z,25.10
2023-10-09T02:59:24.777Z,22.87
2023-10-09T03:01:54.725Z,24.05
2023-10-09T03:04:24.796Z,24.08
2023-10-09T03:06:52.095Z,20.95
2023-10-09T03:09:19.195Z,26.15
2023-10-09T03:11:54.836Z,22.95
2023-10-09T03:14:27.887Z,20.40
2023-10-09T03:16:54.381Z,23.17
2023-10-09T03:19:20.959Z,21.85
2023-10-09T03:21:47.745Z,25.63
2023-10-09T03:24:14.477Z,31.63
2023-10-09T03:26:41.078Z,23.65
2023-10-09T03:29:07.966Z,18.88
2023-10-09T03:31:34.553Z,20.38
2023-10-09T03:34:01.281Z,19.75
2023-10-09T03:36:27.837Z,15.88
2023-10-09T03:38:59.209Z,21.13
2023-10-09T03:41:30.361Z,15.88
2023-10-09T03:43:56.808Z,18.50
2023-10-09T03:46:27.347Z,21.40
2023-10-09T03:48:57.219Z,17.53
2023-10-09T03:51:24.685Z,18.65
2023-10-09T03:53:53.811Z,21.85
2023-10-09T03:56:22.545Z,17.77
2023-10-09T03:58:50.833Z,20.38
2023-10-09T04:01:26.094Z,15.20
2023-10-09T04:04:02.079Z,20.55
2023-10-09T04:06:31.703Z,17.10
2023-10-09T04:09:00.052Z,16.45
2023-10-09T04:11:26.926Z,14.45
2023-10-09T04:14:00.998Z,17.03
2023-10-09T04:16:34.980Z,15.93
2023-10-09T04:19:12.012Z,15.43
2023-10-09T04:21:39.067Z,15.63
2023-10-09T04:24:12.887Z,17.10
2023-10-09T04:26:47.608Z,14.02
2023-10-09T04:29:28.582Z,17.85
2023-10-09T04:31:57.337Z,14.15
2023-10-09T04:34:29.845Z,15.48
2023-10-09T04:37:23.304Z,13.63
2023-10-09T04:39:51.106Z,17.25
2023-10-09T04:42:27.443Z,17.85
2023-10-09T04:45:19.659Z,15.10
2023-10-09T04:48:07.921Z,10.43
2023-10-09T04:50:37.286Z,13.70
2023-10-09T04:53:18.883Z,8.15
2023-10-09T04:55:55.745Z,13.30
2023-10-09T04:58:33.312Z,12.77
2023-10-09T05:00:59.736Z,11.55
2023-10-09T05:03:29.641Z,13.13
2023-10-09T05:06:00.022Z,15.17
2023-10-09T05:08:27.957Z,10.18
2023-10-09T05:11:16.788Z,13.05
2023-10-09T05:13:44.773Z,7.40
2023-10-09T05:16:27.584Z,9.68
2023-10-09T05:19:00.914Z,12.27
2023-10-09T05:21:34.497Z,13.15
2023-10-09T05:24:14.437Z,10.18
2023-10-09T05:26:50.008Z,10.70
2023-10-09T05:29:34.208Z,10.23
2023-10-09T05:32:13.684Z,12.43
2023-10-09T05:35:00.343Z,9.40
2023-10-09T05:37:34.126Z,9.70
2023-10-09T05:40:32.669Z,9.45
2023-10-09T05:43:00.581Z,12.10
2023-10-09T05:45:51.167Z,8.53
2023-10-09T05:48:17.981Z,10.65
2023-10-09T05:51:02.907Z,9.43
2023-10-09T05:53:47.299Z,9.60
2023-10-09T05:56:32.392Z,12.30
2023-10-09T05:59:07.582Z,7.53
2023-10-09T06:01:52.677Z,7.32
2023-10-09T06:04:21.087Z,8.43
2023-10-09T06:06:56.710Z,7.25
2023-10-09T06:09:23.669Z,11.65
2023-10-09T06:11:51.126Z,8.43
2023-10-09T06:14:47.323Z,8.52
2023-10-09T06:17:27.763Z,9.07
2023-10-09T06:20:00.169Z,7.93
2023-10-09T06:22:45.338Z,9.85
2023-10-09T06:25:13.056Z,9.65
2023-10-09T06:27:58.085Z,8.57
2023-10-09T06:30:28.614Z,7.43
2023-10-09T06:33:04.410Z,12.90
2023-10-09T06:35:36.735Z,10.50
2023-10-09T06:38:03.808Z,11.40
2023-10-09T06:40:49.279Z,7.25
2023-10-09T06:43:27.703Z,10.95
2023-10-09T06:45:59.677Z,12.30
2023-10-09T06:48:35.498Z,7.47
2023-10-09T06:51:27.581Z,13.48
2023-10-09T06:53:58.001Z,8.90
2023-10-09T06:56:31.234Z,9.43
2023-10-09T06:59:16.468Z,9.02
2023-10-09T07:01:44.235Z,9.23
2023-10-09T07:04:41.493Z,9.57
2023-10-09T07:07:14.577Z,7.07
2023-10-09T07:09:44.172Z,8.00
2023-10-09T07:12:14.794Z,9.60
2023-10-09T07:14:41.349Z,10.70
2023-10-09T07:17:46.923Z,11.20
2023-10-09T07:20:32.148Z,6.82
2023-10-09T07:23:14.702Z,10.55
2023-10-09T07:25:42.595Z,10.88
2023-10-09T07:28:37.635Z,12.48
2023-10-09T07:31:04.748Z,6.72
2023-10-09T07:33:49.929Z,8.63
2023-10-09T07:36:16.803Z,7.45
2023-10-09T07:38:45.676Z,12.40
2023-10-09T07:41:12.171Z,7.70
2023-10-09T07:43:40.682Z,10.95
2023-10-09T07:46:27.397Z,11.25
2023-10-09T07:48:55.817Z,14.05
2023-10-09T07:51:32.884Z,8.63
2023-10-09T07:54:09.657Z,10.23
2023-10-09T07:56:46.492Z,11.87
2023-10-09T07:59:14.590Z,8.85
2023-10-09T08:01:53.357Z,11.15
2023-10-09T08:04:41.397Z,13.05
2023-10-09T08:08:05.063Z,9.32
2023-10-09T08:10:22.320Z,10.70
2023-10-09T08:12:51.432Z,15.20
2023-10-09T08:15:22.143Z,8.05
2023-10-09T08:18:14.773Z,10.00
2023-10-09T08:20:59.562Z,10.82
2023-10-09T08:23:49.163Z,12.77
2023-10-09T08:26:30.094Z,7.18
2023-10-09T08:29:18.595Z,11.52
2023-10-09T08:31:48.007Z,7.43
2023-10-09T08:35:01.673Z,11.30
2023-10-09T08:37:14.280Z,10.85
2023-10-09T08:39:40.843Z,11.70
2023-10-09T08:42:09.248Z,8.82
2023-10-09T08:44:36.396Z,9.10
2023-10-09T08:47:03.612Z,6.25
2023-10-09T08:49:34.524Z,8.48
2023-10-09T08:52:04.349Z,10.60
2023-10-09T08:54:34.355Z,12.13
2023-10-09T08:57:02.206Z,8.90
2023-10-09T08:59:28.787Z,7.63
2023-10-09T09:01:59.711Z,9.80
2023-10-09T09:04:42.629Z,9.45
2023-10-09T09:07:32.347Z,6.97
2023-10-09T09:10:04.990Z,11.25
2023-10-09T09:12:38.637Z,7.25
2023-10-09T09:15:13.858Z,7.17
2023-10-09T09:17:42.694Z,11.73
2023-10-09T09:20:37.943Z,11.23
2023-10-09T09:23:07.384Z,9.00
2023-10-09T09:25:49.431Z,9.25
2023-10-09T09:28:23.086Z,7.90
2023-10-09T09:30:52.258Z,9.18
2023-10-09T09:33:41.855Z,11.32
2023-10-09T09:36:08.407Z,8.73
2023-10-09T09:38:52.596Z,10.80
2023-10-09T09:41:25.739Z,8.40
2023-10-09T09:43:57.909Z,7.35
2023-10-09T09:46:35.684Z,10.60
2023-10-09T09:49:17.785Z,9.52
2023-10-09T09:51:47.660Z,6.80
2023-10-09T09:54:17.136Z,9.45
2023-10-09T09:56:52.529Z,9.88
2023-10-09T09:59:23.101Z,9.88
2023-10-09T10:01:58.464Z,7.90
2023-10-09T10:04:36.217Z,9.13
2023-10-09T10:07:10.393Z,11.88
2023-10-09T10:09:42.568Z,7.65
2023-10-09T10:12:12.844Z,8.27
2023-10-09T10:15:15.742Z,9.02
2023-10-09T10:18:00.762Z,6.47
2023-10-09T10:20:27.590Z,8.03
2023-10-09T10:23:18.609Z,9.48
2023-10-09T10:25:50.293Z,7.40
2023-10-09T10:28:40.259Z,13.65
2023-10-09T10:31:11.176Z,7.22
2023-10-09T10:33:54.792Z,7.85
2023-10-09T10:36:26.293Z,9.07
2023-10-09T10:39:22.427Z,10.10
2023-10-09T10:42:01.755Z,5.95
2023-10-09T10:44:37.379Z,10.27
2023-10-09T10:47:25.920Z,8.63
2023-10-09T10:49:59.585Z,5.60
2023-10-09T10:52:36.976Z,8.93
2023-10-09T10:55:40.224Z,11.65
2023-10-09T10:58:24.599Z,6.32
2023-10-09T11:00:58.557Z,6.93
2023-10-09T11:03:59.069Z,9.75
2023-10-09T11:06:36.612Z,11.80
2023-10-09T11:09:42.983Z,13.65
2023-10-09T11:12:23.636Z,5.25
2023-10-09T11:15:29.158Z,6.45
2023-10-09T11:18:08.855Z,6.18
2023-10-09T11:20:37.474Z,7.22
2023-10-09T11:23:13.330Z,9.85
2023-10-09T11:26:02.353Z,8.23
2023-10-09T11:28:43.649Z,5.80
2023-10-09T11:31:13.625Z,11.00
2023-10-09T11:33:52.631Z,6.50
2023-10-09T11:36:32.600Z,10.15
2023-10-09T11:39:23.804Z,11.15
2023-10-09T11:41:56.349Z,7.57
2023-10-09T11:44:56.238Z,6.57
2023-10-09T11:47:25.354Z,9.38
2023-10-09T11:50:02.704Z,7.30
2023-10-09T11:52:39.640Z,8.65
2023-10-09T11:55:17.515Z,6.85
2023-10-09T11:57:43.959Z,6.30
2023-10-09T12:00:29.170Z,9.45
2023-10-09T12:02:57.108Z,7.90
2023-10-09T12:05:24.369Z,8.30
2023-10-09T12:07:56.044Z,8.63
2023-10-09T12:10:26.947Z,5.43
2023-10-09T12:12:59.115Z,5.53
2023-10-09T12:15:26.115Z,5.43
2023-10-09T12:17:54.543Z,8.52
2023-10-09T12:20:33.537Z,6.18
2023-10-09T12:23:01.050Z,8.70
2023-10-09T12:25:32.451Z,10.13
2023-10-09T12:28:02.425Z,6.88
2023-10-09T12:30:30.379Z,5.95
2023-10-09T12:32:58.559Z,6.77
2023-10-09T12:35:26.340Z,7.72
2023-10-09T12:37:55.696Z,9.15
2023-10-09T12:40:25.438Z,4.97
2023-10-09T12:42:53.611Z,6.53
2023-10-09T12:45:27.105Z,8.90
2023-10-09T12:48:00.515Z,5.43
2023-10-09T12:50:30.128Z,8.05
2023-10-09T12:53:03.735Z,6.67
2023-10-09T12:55:33.258Z,9.13
2023-10-09T12:58:08.909Z,5.35
2023-10-09T13:00:45.286Z,6.57
2023-10-09T13:03:18.625Z,11.43
2023-10-09T13:05:54.876Z,7.77
2023-10-09T13:08:37.897Z,6.35
2023-10-09T13:11:12.985Z,6.32
2023-10-09T13:13:41.713Z,4.72
2023-10-09T13:16:09.270Z,7.93
2023-10-09T13:18:36.221Z,6.28
2023-10-09T13:21:05.892Z,8.63
2023-10-09T13:23:49.081Z,7.22
2023-10-09T13:26:31.281Z,7.20
2023-10-09T13:29:02.635Z,11.25
2023-10-09T13:31:32.996Z,4.63
2023-10-09T13:34:00.435Z,7.03
2023-10-09T13:36:34.128Z,6.93
2023-10-09T13:39:26.459Z,9.52
2023-10-09T13:42:01.469Z,7.30
2023-10-09T13:44:32.661Z,8.15
2023-10-09T13:47:02.291Z,8.55
2023-10-09T13:49:32.257Z,9.48
2023-10-09T13:52:00.828Z,5.63
2023-10-09T13:54:33.155Z,5.28
2023-10-09T13:57:10.860Z,8.55
2023-10-09T13:59:37.808Z,8.82
2023-10-09T14:02:11.281Z,11.10
2023-10-09T14:04:38.396Z,13.60
2023-10-09T14:07:07.272Z,8.32
2023-10-09T14:09:39.999Z,10.27
2023-10-09T14:12:11.538Z,8.75
2023-10-09T14:14:41.800Z,9.25
2023-10-09T14:17:15.059Z,6.20
2023-10-09T14:19:48.196Z,11.15
2023-10-09T14:22:18.725Z,8.10
2023-10-09T14:24:46.714Z,8.25
2023-10-09T14:27:20.150Z,7.13
2023-10-09T14:29:47.827Z,10.32
2023-10-09T14:32:15.046Z,10.52
2023-10-09T14:34:47.391Z,8.03
2023-10-09T14:37:16.183Z,9.00
2023-10-09T14:39:43.676Z,8.10
2023-10-09T14:42:13.856Z,11.20
2023-10-09T14:44:41.632Z,8.75
2023-10-09T14:47:09.145Z,9.02
2023-10-09T14:49:44.544Z,10.40
2023-10-09T14:52:11.654Z,11.23
2023-10-09T14:54:39.349Z,10.13
2023-10-09T14:57:07.191Z,11.20
2023-10-09T14:59:34.731Z,7.80
2023-10-09T15:02:02.353Z,11.02
2023-10-09T15:04:29.064Z,10.70
2023-10-09T15:06:55.562Z,9.85
2023-10-09T15:09:23.910Z,7.95
2023-10-09T15:11:52.460Z,6.87
2023-10-09T15:14:22.367Z,13.15
2023-10-09T15:16:49.198Z,10.45
2023-10-09T15:19:17.550Z,8.05
2023-10-09T15:21:47.361Z,10.50
2023-10-09T15:24:19.272Z,7.45
2023-10-09T15:26:58.780Z,7.85
2023-10-09T15:29:29.618Z,12.80
2023-10-09T15:31:57.325Z,8.50
2023-10-09T15:34:25.674Z,10.68
2023-10-09T15:36:54.475Z,10.63
2023-10-09T15:39:21.209Z,9.88
2023-10-09T15:41:47.843Z,9.50
2023-10-09T15:44:17.887Z,10.88
2023-10-09T15:46:46.338Z,9.15
2023-10-09T15:49:15.073Z,9.30
2023-10-09T15:51:41.775Z,9.25
2023-10-09T15:54:12.421Z,9.02
2023-10-09T15:56:47.236Z,10.38
2023-10-09T15:59:18.076Z,4.78
2023-10-09T16:01:45.089Z,8.93
2023-10-09T16:04:12.061Z,7.63
2023-10-09T16:06:42.553Z,5.38
2023-10-09T16:09:12.566Z,10.10
2023-10-09T16:11:40.779Z,7.32
2023-10-09T16:14:16.610Z,9.43
2023-10-09T16:16:45.136Z,7.40
2023-10-09T16:19:13.204Z,8.75
2023-10-09T16:21:40.808Z,10.95
2023-10-09T16:24:10.377Z,9.05
2023-10-09T16:26:40.735Z,9.70
2023-10-09T16:29:11.300Z,9.15
2023-10-09T16:31:41.535Z,11.95
2023-10-09T16:34:09.436Z,8.52
2023-10-09T16:36:37.045Z,6.72
2023-10-09T16:39:04.646Z,8.30
2023-10-09T16:41:40.590Z,8.48
2023-10-09T16:44:11.101Z,7.50
2023-10-09T16:46:40.949Z,9.32
2023-10-09T16:49:09.552Z,9.07
2023-10-09T16:51:36.147Z,12.43
2023-10-09T16:54:04.114Z,13.23
2023-10-09T16:56:34.477Z,8.40
2023-10-09T16:59:01.728Z,6.32
2023-10-09T17:01:28.873Z,5.63
2023-10-09T17:03:56.278Z,6.72
2023-10-09T17:06:23.052Z,10.18
2023-10-09T17:08:49.744Z,11.48
2023-10-09T17:11:21.149Z,9.35
2023-10-09T17:13:49.674Z,10.90
2023-10-09T17:16:22.491Z,9.75
2023-10-09T17:18:49.917Z,10.38
2023-10-09T17:21:16.997Z,8.00
2023-10-09T17:23:46.271Z,11.20
2023-10-09T17:26:14.595Z,11.30
2023-10-09T17:28:41.629Z,11.48
2023-10-09T17:31:08.468Z,8.07
2023-10-09T17:33:35.271Z,12.50
2023-10-09T17:36:03.368Z,14.63
2023-10-09T17:38:31.396Z,11.25
2023-10-09T17:40:59.565Z,10.15
2023-10-09T17:43:26.550Z,12.50
2023-10-09T17:45:56.360Z,13.40
2023-10-09T17:48:24.287Z,10.68
2023-10-09T17:50:53.790Z,12.13
2023-10-09T17:53:20.270Z,13.02
2023-10-09T17:55:48.381Z,7.53
2023-10-09T17:58:14.980Z,13.55
2023-10-09T18:00:43.477Z,12.02
2023-10-09T18:03:11.419Z,13.93
2023-10-09T18:05:38.054Z,11.77
2023-10-09T18:08:04.824Z,14.60
2023-10-09T18:10:35.370Z,11.57
2023-10-09T18:13:01.934Z,12.40
2023-10-09T18:15:30.241Z,8.27
2023-10-09T18:17:57.394Z,9.88
2023-10-09T18:20:24.111Z,10.23
2023-10-09T18:22:52.172Z,12.05
2023-10-09T18:25:21.522Z,10.93
2023-10-09T18:27:48.004Z,14.88
2023-10-09T18:30:14.776Z,8.73
2023-10-09T18:32:41.651Z,8.93
2023-10-09T18:35:11.651Z,11.52
2023-10-09T18:37:39.764Z,10.20
2023-10-09T18:40:17.673Z,8.05
2023-10-09T18:42:46.894Z,4.90
2023-10-09T18:45:16.507Z,5.35
2023-10-09T18:47:43.631Z,8.50
2023-10-09T18:50:13.178Z,7.57
2023-10-09T18:52:43.885Z,3.75
2023-10-09T18:55:13.819Z,7.32
2023-10-09T18:57:41.373Z,5.72
2023-10-09T19:00:13.693Z,3.83
2023-10-09T19:02:40.152Z,6.80
2023-10-09T19:05:09.225Z,6.07
2023-10-09T19:07:36.628Z,4.90
2023-10-09T19:10:03.689Z,5.20
2023-10-09T19:12:30.240Z,7.32
2023-10-09T19:14:56.759Z,7.95
2023-10-09T19:17:23.349Z,8.32
2023-10-09T19:19:50.015Z,5.43
2023-10-09T19:22:16.960Z,7.68
2023-10-09T19:24:43.589Z,4.28
2023-10-09T19:27:11.591Z,5.78
2023-10-09T19:29:38.026Z,4.93
2023-10-09T19:32:04.633Z,8.02
2023-10-09T19:34:31.061Z,4.70
2023-10-09T19:36:57.483Z,7.18
2023-10-09T19:39:24.788Z,6.07
2023-10-09T19:41:51.244Z,6.47
2023-10-09T19:44:18.567Z,7.05
2023-10-09T19:46:45.444Z,8.63
2023-10-09T19:49:12.189Z,6.40
2023-10-09T19:51:40.616Z,7.75
2023-10-09T19:54:07.248Z,4.10
2023-10-09T19:56:33.655Z,5.25
2023-10-09T19:59:00.242Z,7.07
2023-10-09T20:01:28.553Z,6.13
2023-10-09T20:03:55.060Z,8.48
2023-10-09T20:06:21.985Z,4.82
2023-10-09T20:08:48.921Z,3.88
2023-10-09T20:11:15.918Z,5.80
2023-10-09T20:13:50.857Z,6.57
2023-10-09T20:16:18.148Z,6.90
2023-10-09T20:18:45.234Z,4.82
2023-10-09T20:21:12.521Z,4.63
2023-10-09T20:23:40.613Z,4.43
2023-10-09T20:26:08.035Z,5.95
2023-10-09T20:28:38.149Z,3.20
2023-10-09T20:31:05.141Z,4.40
2023-10-09T20:33:36.101Z,5.15
2023-10-09T20:36:29.006Z,3.22
2023-10-09T20:38:55.814Z,4.75
2023-10-09T20:41:27.085Z,6.57
2023-10-09T20:46:20.800Z,5.68
2023-10-09T20:48:47.521Z,5.70
2023-10-09T20:51:18.624Z,5.05
2023-10-09T20:53:45.414Z,7.05
2023-10-09T20:56:12.206Z,4.07
2023-10-09T20:58:42.661Z,6.95
2023-10-09T21:01:17.618Z,8.43
2023-10-09T21:03:53.662Z,5.60
2023-10-09T21:06:24.929Z,7.53
2023-10-09T21:08:51.612Z,7.35
2023-10-09T21:11:19.675Z,7.22
2023-10-09T21:13:47.500Z,6.65
2023-10-09T21:16:15.838Z,5.60
2023-10-09T21:18:45.957Z,5.25
2023-10-09T21:21:13.758Z,6.63
2023-10-09T21:23:43.928Z,8.65
2023-10-09T21:26:21.183Z,5.03
2023-10-09T21:28:49.308Z,6.50
2023-10-09T21:31:18.004Z,7.28
2023-10-09T21:33:45.858Z,6.38
2023-10-09T21:36:12.442Z,6.43
2023-10-09T21:38:38.895Z,7.97
2023-10-09T21:41:18.233Z,5.30
2023-10-09T21:43:46.152Z,6.95
2023-10-09T21:46:13.339Z,6.22
2023-10-09T21:48:40.338Z,4.78
2023-10-09T21:51:10.684Z,4.00
2023-10-09T21:53:37.841Z,7.63
2023-10-09T21:56:06.368Z,3.38
2023-10-09T21:58:33.368Z,6.80
2023-10-09T22:01:04.226Z,9.57
2023-10-09T22:03:31.658Z,5.05
2023-10-09T22:05:59.534Z,6.15
2023-10-09T22:08:26.821Z,10.80
2023-10-09T22:10:54.174Z,5.63
2023-10-09T22:13:20.847Z,6.03
2023-10-09T22:15:49.299Z,6.40
2023-10-09T22:18:23.061Z,5.38
2023-10-09T22:20:50.774Z,7.05
2023-10-09T22:23:20.766Z,3.20
2023-10-09T22:25:57.643Z,5.13
2023-10-09T22:28:25.209Z,5.55
2023-10-09T22:30:54.410Z,3.72
2023-10-09T22:33:24.036Z,5.88
2023-10-09T22:35:54.111Z,5.22
2023-10-09T22:38:24.146Z,3.92
2023-10-09T22:40:52.515Z,4.10
2023-10-09T22:43:24.793Z,3.63
2023-10-09T22:45:57.981Z,7.97
2023-10-09T22:48:28.298Z,7.72
2023-10-09T22:51:11.352Z,5.93
2023-10-09T22:53:40.441Z,4.40
2023-10-09T22:56:08.737Z,5.07
2023-10-09T22:58:39.168Z,3.33
2023-10-09T23:01:19.605Z,6.78
2023-10-09T23:04:06.372Z,4.72
2023-10-09T23:06:35.063Z,3.85
2023-10-09T23:09:17.880Z,6.72
2023-10-09T23:12:08.601Z,4.88
2023-10-09T23:14:36.511Z,4.80
2023-10-09T23:17:03.082Z,4.68
2023-10-09T23:19:44.942Z,8.48
2023-10-09T23:22:16.001Z,4.63
2023-10-09T23:24:50.520Z,11.77
2023-10-09T23:27:37.674Z,4.35
2023-10-09T23:30:17.021Z,5.40
2023-10-09T23:33:11.485Z,7.65
2023-10-09T23:35:47.083Z,5.85
2023-10-09T23:38:21.796Z,6.10
2023-10-09T23:40:52.467Z,5.97
2023-10-09T23:43:24.106Z,6.13
2023-10-09T23:45:58.299Z,6.15
2023-10-09T23:48:29.155Z,6.07
2023-10-09T23:51:03.369Z,6.75
2023-10-09T23:53:37.323Z,8.02
2023-10-09T23:56:11.990Z,7.45
2023-10-09T23:58:46.684Z,5.13
